Terminal Aerodrome Forecast
Issued by NWS

Current Version | Previous Version | Text Only | Print | Product List | Glossary On
Versions: 1 2 3 4 5 6 7 8 9 10 11 12 13 14 15 16 17 18 19 20 21 22 23 24 25 26 27 28
000
FTUS45 KPIH 230520
TAFSUN
TAF
KSUN 230520Z 2306/2406 30007KT 6SM -SHSN SCT020 OVC040
     FM230700 VRB06KT 2SM -SN BR BKN007 OVC010
     FM231200 31007KT P6SM VCSH SCT015 BKN050
     FM232000 VRB06KT 1SM -SN BR BKN004 OVC009
      AMD LTD TO CLD VIS AND WIND TIL 231400=

USA.gov is the U.S. government's official web portal to all federal, state and local government web resources and services.